sensor_id;sensor_type;location;lat;lon;timestamp;temperature;humidity
54960;DHT22;40860;51.710;8.736;2023-04-01T00:02:23;10.00;99.90
54960;DHT22;40860;51.710;8.736;2023-04-01T00:06:26;10.00;99.90
54960;DHT22;40860;51.710;8.736;2023-04-01T00:10:29;10.00;99.90
54960;DHT22;40860;51.710;8.736;2023-04-01T00:14:32;10.00;99.90
54960;DHT22;40860;51.710;8.736;2023-04-01T00:18:38;10.00;99.90
54960;DHT22;40860;51.710;8.736;2023-04-01T00:22:41;10.00;99.90
54960;DHT22;40860;51.710;8.736;2023-04-01T00:26:43;10.00;99.90
54960;DHT22;40860;51.710;8.736;2023-04-01T00:30:47;10.00;99.90
54960;DHT22;40860;51.710;8.736;2023-04-01T00:34:52;10.00;99.90
54960;DHT22;40860;51.710;8.736;2023-04-01T00:38:55;10.00;99.90
54960;DHT22;40860;51.710;8.736;2023-04-01T00:42:58;10.00;99.90
54960;DHT22;40860;51.710;8.736;2023-04-01T00:47:01;10.00;99.90
54960;DHT22;40860;51.710;8.736;2023-04-01T00:51:07;10.00;99.90
54960;DHT22;40860;51.710;8.736;2023-04-01T00:55:13;10.00;99.90
54960;DHT22;40860;51.710;8.736;2023-04-01T00:59:23;10.00;99.90
54960;DHT22;40860;51.710;8.736;2023-04-01T01:03:26;10.00;99.90
54960;DHT22;40860;51.710;8.736;2023-04-01T01:07:36;10.00;99.90
54960;DHT22;40860;51.710;8.736;2023-04-01T01:11:43;10.00;99.90
54960;DHT22;40860;51.710;8.736;2023-04-01T01:15:48;10.00;99.90
54960;DHT22;40860;51.710;8.736;2023-04-01T01:24:42;10.10;99.90
54960;DHT22;40860;51.710;8.736;2023-04-01T01:28:59;10.00;99.90
54960;DHT22;40860;51.710;8.736;2023-04-01T01:33:17;10.00;99.90
54960;DHT22;40860;51.710;8.736;2023-04-01T01:37:26;10.00;99.90
54960;DHT22;40860;51.710;8.736;2023-04-01T01:41:31;10.00;99.90
54960;DHT22;40860;51.710;8.736;2023-04-01T01:45:36;10.00;99.90
54960;DHT22;40860;51.710;8.736;2023-04-01T01:49:42;9.90;99.90
54960;DHT22;40860;51.710;8.736;2023-04-01T01:53:47;9.90;99.90
54960;DHT22;40860;51.710;8.736;2023-04-01T01:57:52;9.90;99.90
54960;DHT22;40860;51.710;8.736;2023-04-01T02:01:56;9.80;99.90
54960;DHT22;40860;51.710;8.736;2023-04-01T02:06:00;9.80;99.90
54960;DHT22;40860;51.710;8.736;2023-04-01T02:10:06;9.70;99.90
54960;DHT22;40860;51.710;8.736;2023-04-01T02:14:11;9.70;99.90
54960;DHT22;40860;51.710;8.736;2023-04-01T02:18:18;9.70;99.90
54960;DHT22;40860;51.710;8.736;2023-04-01T02:22:24;9.70;99.90
54960;DHT22;40860;51.710;8.736;2023-04-01T02:26:30;9.80;99.90
54960;DHT22;40860;51.710;8.736;2023-04-01T02:30:35;9.80;99.90
54960;DHT22;40860;51.710;8.736;2023-04-01T02:34:38;9.80;99.90
54960;DHT22;40860;51.710;8.736;2023-04-01T02:38:43;9.80;99.90
54960;DHT22;40860;51.710;8.736;2023-04-01T02:42:47;9.80;99.90
54960;DHT22;40860;51.710;8.736;2023-04-01T02:46:50;9.80;99.90
54960;DHT22;40860;51.710;8.736;2023-04-01T02:50:54;9.80;99.90
54960;DHT22;40860;51.710;8.736;2023-04-01T02:54:57;9.80;99.90
54960;DHT22;40860;51.710;8.736;2023-04-01T02:59:02;9.80;99.90
54960;DHT22;40860;51.710;8.736;2023-04-01T03:03:04;9.80;99.90
54960;DHT22;40860;51.710;8.736;2023-04-01T03:07:08;9.80;99.90
54960;DHT22;40860;51.710;8.736;2023-04-01T03:11:12;9.80;99.90
54960;DHT22;40860;51.710;8.736;2023-04-01T03:15:17;9.80;99.90
54960;DHT22;40860;51.710;8.736;2023-04-01T03:19:20;9.80;99.90
54960;DHT22;40860;51.710;8.736;2023-04-01T03:23:23;9.80;99.90
54960;DHT22;40860;51.710;8.736;2023-04-01T03:27:26;9.80;99.90
54960;DHT22;40860;51.710;8.736;2023-04-01T03:31:30;9.80;99.90
54960;DHT22;40860;51.710;8.736;2023-04-01T03:35:33;9.80;99.90
54960;DHT22;40860;51.710;8.736;2023-04-01T03:39:37;9.80;99.90
54960;DHT22;40860;51.710;8.736;2023-04-01T03:43:40;9.80;99.90
54960;DHT22;40860;51.710;8.736;2023-04-01T03:47:44;9.80;99.90
54960;DHT22;40860;51.710;8.736;2023-04-01T03:51:47;9.70;99.90
54960;DHT22;40860;51.710;8.736;2023-04-01T03:55:50;9.70;99.90
54960;DHT22;40860;51.710;8.736;2023-04-01T03:59:53;9.70;99.90
54960;DHT22;40860;51.710;8.736;2023-04-01T04:03:58;9.70;99.90
54960;DHT22;40860;51.710;8.736;2023-04-01T04:08:03;9.60;99.90
54960;DHT22;40860;51.710;8.736;2023-04-01T04:12:07;9.60;99.90
54960;DHT22;40860;51.710;8.736;2023-04-01T04:16:10;9.60;99.90
54960;DHT22;40860;51.710;8.736;2023-04-01T04:20:20;9.60;99.90
54960;DHT22;40860;51.710;8.736;2023-04-01T04:24:23;9.60;99.90
54960;DHT22;40860;51.710;8.736;2023-04-01T04:28:35;9.50;99.90
54960;DHT22;40860;51.710;8.736;2023-04-01T04:32:38;9.50;99.90
54960;DHT22;40860;51.710;8.736;2023-04-01T04:36:43;9.50;99.90
54960;DHT22;40860;51.710;8.736;2023-04-01T04:40:46;9.50;99.90
54960;DHT22;40860;51.710;8.736;2023-04-01T04:44:49;9.40;99.90
54960;DHT22;40860;51.710;8.736;2023-04-01T04:48:52;9.40;99.90
54960;DHT22;40860;51.710;8.736;2023-04-01T04:52:57;9.40;99.90
54960;DHT22;40860;51.710;8.736;2023-04-01T04:57:00;9.40;99.90
54960;DHT22;40860;51.710;8.736;2023-04-01T05:01:09;9.40;99.90
54960;DHT22;40860;51.710;8.736;2023-04-01T05:05:13;9.40;99.90
54960;DHT22;40860;51.710;8.736;2023-04-01T05:09:18;9.40;99.90
54960;DHT22;40860;51.710;8.736;2023-04-01T05:13:20;9.30;99.90
54960;DHT22;40860;51.710;8.736;2023-04-01T05:17:23;9.30;99.90
54960;DHT22;40860;51.710;8.736;2023-04-01T05:21:26;9.30;99.90
54960;DHT22;40860;51.710;8.736;2023-04-01T05:25:32;9.30;99.90
54960;DHT22;40860;51.710;8.736;2023-04-01T05:29:36;9.30;99.90
54960;DHT22;40860;51.710;8.736;2023-04-01T05:33:41;9.30;99.90
54960;DHT22;40860;51.710;8.736;2023-04-01T05:37:44;9.30;99.90
54960;DHT22;40860;51.710;8.736;2023-04-01T05:41:49;9.30;99.90
54960;DHT22;40860;51.710;8.736;2023-04-01T05:45:52;9.40;99.90
54960;DHT22;40860;51.710;8.736;2023-04-01T05:50:11;9.40;99.90
54960;DHT22;40860;51.710;8.736;2023-04-01T05:54:14;9.40;99.90
54960;DHT22;40860;51.710;8.736;2023-04-01T05:58:20;9.40;99.90
54960;DHT22;40860;51.710;8.736;2023-04-01T06:02:23;9.40;99.90
54960;DHT22;40860;51.710;8.736;2023-04-01T06:06:28;9.50;99.90
54960;DHT22;40860;51.710;8.736;2023-04-01T06:10:53;9.50;99.90
54960;DHT22;40860;51.710;8.736;2023-04-01T06:15:07;9.50;99.90
54960;DHT22;40860;51.710;8.736;2023-04-01T06:19:21;9.50;99.90
54960;DHT22;40860;51.710;8.736;2023-04-01T06:23:42;9.50;99.90
54960;DHT22;40860;51.710;8.736;2023-04-01T06:28:05;9.50;99.90
54960;DHT22;40860;51.710;8.736;2023-04-01T06:32:40;9.50;99.90
54960;DHT22;40860;51.710;8.736;2023-04-01T06:37:01;9.50;99.90
54960;DHT22;40860;51.710;8.736;2023-04-01T06:45:47;9.50;99.90
54960;DHT22;40860;51.710;8.736;2023-04-01T06:50:21;9.60;99.90
54960;DHT22;40860;51.710;8.736;2023-04-01T06:55:16;9.60;99.90
54960;DHT22;40860;51.710;8.736;2023-04-01T06:59:54;9.60;99.90
54960;DHT22;40860;51.710;8.736;2023-04-01T07:04:02;9.70;99.90
54960;DHT22;40860;51.710;8.736;2023-04-01T07:08:11;9.70;99.90
54960;DHT22;40860;51.710;8.736;2023-04-01T07:12:19;9.70;99.90
54960;DHT22;40860;51.710;8.736;2023-04-01T07:16:47;9.80;99.90
54960;DHT22;40860;51.710;8.736;2023-04-01T07:20:52;9.90;99.90
54960;DHT22;40860;51.710;8.736;2023-04-01T07:25:02;10.00;99.90
54960;DHT22;40860;51.710;8.736;2023-04-01T07:29:10;10.10;99.90
54960;DHT22;40860;51.710;8.736;2023-04-01T07:33:34;10.10;99.90
54960;DHT22;40860;51.710;8.736;2023-04-01T07:37:49;10.10;99.90
54960;DHT22;40860;51.710;8.736;2023-04-01T07:41:59;10.20;99.90
54960;DHT22;40860;51.710;8.736;2023-04-01T07:46:13;10.20;99.90
54960;DHT22;40860;51.710;8.736;2023-04-01T07:50:21;10.30;99.90
54960;DHT22;40860;51.710;8.736;2023-04-01T07:54:34;10.40;99.90
54960;DHT22;40860;51.710;8.736;2023-04-01T07:58:51;10.50;99.90
54960;DHT22;40860;51.710;8.736;2023-04-01T08:03:26;10.50;99.90
54960;DHT22;40860;51.710;8.736;2023-04-01T08:07:38;10.60;99.90
54960;DHT22;40860;51.710;8.736;2023-04-01T08:12:21;10.60;99.90
54960;DHT22;40860;51.710;8.736;2023-04-01T08:16:43;10.60;99.90
54960;DHT22;40860;51.710;8.736;2023-04-01T08:20:57;10.70;99.90
54960;DHT22;40860;51.710;8.736;2023-04-01T08:25:04;10.80;99.90
54960;DHT22;40860;51.710;8.736;2023-04-01T08:29:13;10.80;99.90
54960;DHT22;40860;51.710;8.736;2023-04-01T08:33:23;10.90;99.90
54960;DHT22;40860;51.710;8.736;2023-04-01T08:37:38;10.90;99.90
54960;DHT22;40860;51.710;8.736;2023-04-01T08:42:08;11.00;99.90
54960;DHT22;40860;51.710;8.736;2023-04-01T08:51:26;11.00;99.90
54960;DHT22;40860;51.710;8.736;2023-04-01T08:55:46;11.10;99.90
54960;DHT22;40860;51.710;8.736;2023-04-01T08:59:58;11.20;99.90
54960;DHT22;40860;51.710;8.736;2023-04-01T09:04:29;11.30;99.90
54960;DHT22;40860;51.710;8.736;2023-04-01T09:08:47;11.40;99.90
54960;DHT22;40860;51.710;8.736;2023-04-01T09:13:09;11.50;99.90
54960;DHT22;40860;51.710;8.736;2023-04-01T09:17:35;11.60;99.90
54960;DHT22;40860;51.710;8.736;2023-04-01T09:26:31;11.90;99.90
54960;DHT22;40860;51.710;8.736;2023-04-01T09:31:02;11.90;99.90
54960;DHT22;40860;51.710;8.736;2023-04-01T09:35:21;11.90;99.90
54960;DHT22;40860;51.710;8.736;2023-04-01T09:39:36;11.80;99.90
54960;DHT22;40860;51.710;8.736;2023-04-01T09:44:00;11.70;99.90
54960;DHT22;40860;51.710;8.736;2023-04-01T09:48:19;11.70;99.90
54960;DHT22;40860;51.710;8.736;2023-04-01T09:52:31;11.70;99.90
54960;DHT22;40860;51.710;8.736;2023-04-01T09:57:29;11.80;99.90
54960;DHT22;40860;51.710;8.736;2023-04-01T10:11:49;12.00;99.90
54960;DHT22;40860;51.710;8.736;2023-04-01T10:16:25;11.90;99.90
54960;DHT22;40860;51.710;8.736;2023-04-01T10:20:53;11.90;99.90
54960;DHT22;40860;51.710;8.736;2023-04-01T10:25:18;12.00;99.90
54960;DHT22;40860;51.710;8.736;2023-04-01T10:29:56;12.00;99.90
54960;DHT22;40860;51.710;8.736;2023-04-01T10:34:31;12.00;99.90
54960;DHT22;40860;51.710;8.736;2023-04-01T10:39:08;12.10;99.90
54960;DHT22;40860;51.710;8.736;2023-04-01T10:43:39;12.10;99.90
54960;DHT22;40860;51.710;8.736;2023-04-01T10:48:07;12.20;99.90
54960;DHT22;40860;51.710;8.736;2023-04-01T10:52:36;12.20;99.90
54960;DHT22;40860;51.710;8.736;2023-04-01T10:56:56;12.30;99.90
54960;DHT22;40860;51.710;8.736;2023-04-01T11:01:46;12.20;99.90
54960;DHT22;40860;51.710;8.736;2023-04-01T11:07:22;12.20;99.90
54960;DHT22;40860;51.710;8.736;2023-04-01T11:11:58;12.10;99.90
54960;DHT22;40860;51.710;8.736;2023-04-01T11:16:28;12.00;99.90
54960;DHT22;40860;51.710;8.736;2023-04-01T11:25:52;11.90;99.90
54960;DHT22;40860;51.710;8.736;2023-04-01T11:30:38;12.00;99.90
54960;DHT22;40860;51.710;8.736;2023-04-01T11:34:56;12.10;99.90
54960;DHT22;40860;51.710;8.736;2023-04-01T11:39:11;12.20;99.90
54960;DHT22;40860;51.710;8.736;2023-04-01T11:43:39;12.20;99.90
54960;DHT22;40860;51.710;8.736;2023-04-01T11:48:11;12.30;99.90
54960;DHT22;40860;51.710;8.736;2023-04-01T11:52:27;12.30;99.90
54960;DHT22;40860;51.710;8.736;2023-04-01T11:56:44;12.30;99.90
54960;DHT22;40860;51.710;8.736;2023-04-01T12:01:16;12.20;99.90
54960;DHT22;40860;51.710;8.736;2023-04-01T12:05:36;12.20;99.90
54960;DHT22;40860;51.710;8.736;2023-04-01T12:09:47;12.30;99.90
54960;DHT22;40860;51.710;8.736;2023-04-01T12:13:55;12.40;99.90
54960;DHT22;40860;51.710;8.736;2023-04-01T12:18:10;12.50;99.90
54960;DHT22;40860;51.710;8.736;2023-04-01T12:22:28;12.50;99.90
54960;DHT22;40860;51.710;8.736;2023-04-01T12:26:55;12.40;99.90
54960;DHT22;40860;51.710;8.736;2023-04-01T12:31:12;12.20;99.90
54960;DHT22;40860;51.710;8.736;2023-04-01T12:35:23;12.10;99.90
54960;DHT22;40860;51.710;8.736;2023-04-01T12:39:44;12.00;99.90
54960;DHT22;40860;51.710;8.736;2023-04-01T12:44:05;11.90;99.90
54960;DHT22;40860;51.710;8.736;2023-04-01T12:48:42;11.90;99.90
54960;DHT22;40860;51.710;8.736;2023-04-01T12:52:57;11.90;99.90
54960;DHT22;40860;51.710;8.736;2023-04-01T12:57:19;12.00;99.90
54960;DHT22;40860;51.710;8.736;2023-04-01T13:01:47;12.10;99.90
54960;DHT22;40860;51.710;8.736;2023-04-01T13:06:25;12.30;99.90
54960;DHT22;40860;51.710;8.736;2023-04-01T13:10:42;12.40;99.90
54960;DHT22;40860;51.710;8.736;2023-04-01T13:15:32;12.50;99.90
54960;DHT22;40860;51.710;8.736;2023-04-01T13:19:39;12.70;99.90
54960;DHT22;40860;51.710;8.736;2023-04-01T13:24:16;12.60;99.90
54960;DHT22;40860;51.710;8.736;2023-04-01T13:28:24;12.70;99.90
54960;DHT22;40860;51.710;8.736;2023-04-01T13:32:36;12.80;99.90
54960;DHT22;40860;51.710;8.736;2023-04-01T13:36:56;12.90;99.90
54960;DHT22;40860;51.710;8.736;2023-04-01T13:41:10;12.90;99.90
54960;DHT22;40860;51.710;8.736;2023-04-01T13:45:17;13.00;99.90
54960;DHT22;40860;51.710;8.736;2023-04-01T13:54:33;13.20;99.90
54960;DHT22;40860;51.710;8.736;2023-04-01T13:58:50;13.30;99.90
54960;DHT22;40860;51.710;8.736;2023-04-01T14:03:13;13.10;99.90
54960;DHT22;40860;51.710;8.736;2023-04-01T14:07:42;13.00;99.90
54960;DHT22;40860;51.710;8.736;2023-04-01T14:11:56;13.00;99.90
54960;DHT22;40860;51.710;8.736;2023-04-01T14:16:14;12.90;99.90
54960;DHT22;40860;51.710;8.736;2023-04-01T14:20:37;12.90;99.90
54960;DHT22;40860;51.710;8.736;2023-04-01T14:24:52;12.90;99.90
54960;DHT22;40860;51.710;8.736;2023-04-01T14:29:10;12.70;99.90
54960;DHT22;40860;51.710;8.736;2023-04-01T14:33:24;12.50;99.90
54960;DHT22;40860;51.710;8.736;2023-04-01T14:42:19;12.20;99.90
54960;DHT22;40860;51.710;8.736;2023-04-01T14:51:03;12.00;99.90
54960;DHT22;40860;51.710;8.736;2023-04-01T14:55:21;11.90;99.90
54960;DHT22;40860;51.710;8.736;2023-04-01T14:59:30;11.90;99.90
54960;DHT22;40860;51.710;8.736;2023-04-01T15:03:38;11.80;99.90
54960;DHT22;40860;51.710;8.736;2023-04-01T15:07:56;11.70;99.90
54960;DHT22;40860;51.710;8.736;2023-04-01T15:12:12;11.70;99.90
54960;DHT22;40860;51.710;8.736;2023-04-01T15:16:24;11.80;99.90
54960;DHT22;40860;51.710;8.736;2023-04-01T15:20:52;11.80;99.90
54960;DHT22;40860;51.710;8.736;2023-04-01T15:25:13;11.80;99.90
54960;DHT22;40860;51.710;8.736;2023-04-01T15:29:35;11.90;99.90
54960;DHT22;40860;51.710;8.736;2023-04-01T15:33:53;11.90;99.90
54960;DHT22;40860;51.710;8.736;2023-04-01T15:38:05;11.80;99.90
54960;DHT22;40860;51.710;8.736;2023-04-01T15:42:33;11.90;99.90
54960;DHT22;40860;51.710;8.736;2023-04-01T15:46:43;11.80;99.90
54960;DHT22;40860;51.710;8.736;2023-04-01T15:50:59;11.70;99.90
54960;DHT22;40860;51.710;8.736;2023-04-01T15:55:19;11.70;99.90
54960;DHT22;40860;51.710;8.736;2023-04-01T15:59:47;11.70;99.90
54960;DHT22;40860;51.710;8.736;2023-04-01T16:03:59;11.70;99.90
54960;DHT22;40860;51.710;8.736;2023-04-01T16:08:20;11.60;99.90
54960;DHT22;40860;51.710;8.736;2023-04-01T16:12:41;11.60;99.90
54960;DHT22;40860;51.710;8.736;2023-04-01T16:16:56;11.60;99.90
54960;DHT22;40860;51.710;8.736;2023-04-01T16:21:05;11.50;99.90
54960;DHT22;40860;51.710;8.736;2023-04-01T16:25:32;11.50;99.90
54960;DHT22;40860;51.710;8.736;2023-04-01T16:29:43;11.50;99.90
54960;DHT22;40860;51.710;8.736;2023-04-01T16:33:52;11.50;99.90
54960;DHT22;40860;51.710;8.736;2023-04-01T16:38:03;11.50;99.90
54960;DHT22;40860;51.710;8.736;2023-04-01T16:42:22;11.40;99.90
54960;DHT22;40860;51.710;8.736;2023-04-01T16:46:31;11.40;99.90
54960;DHT22;40860;51.710;8.736;2023-04-01T16:50:44;11.40;99.90
54960;DHT22;40860;51.710;8.736;2023-04-01T16:54:55;11.40;99.90
54960;DHT22;40860;51.710;8.736;2023-04-01T16:59:07;11.30;99.90
54960;DHT22;40860;51.710;8.736;2023-04-01T17:03:19;11.30;99.90
54960;DHT22;40860;51.710;8.736;2023-04-01T17:07:28;11.30;99.90
54960;DHT22;40860;51.710;8.736;2023-04-01T17:11:38;11.30;99.90
54960;DHT22;40860;51.710;8.736;2023-04-01T17:15:50;11.20;99.90
54960;DHT22;40860;51.710;8.736;2023-04-01T17:20:06;11.20;99.90
54960;DHT22;40860;51.710;8.736;2023-04-01T17:24:29;11.20;99.90
54960;DHT22;40860;51.710;8.736;2023-04-01T17:28:42;11.10;99.90
54960;DHT22;40860;51.710;8.736;2023-04-01T17:32:58;11.10;99.90
54960;DHT22;40860;51.710;8.736;2023-04-01T17:37:13;11.00;99.90
54960;DHT22;40860;51.710;8.736;2023-04-01T17:41:27;11.00;99.90
54960;DHT22;40860;51.710;8.736;2023-04-01T17:45:38;10.90;99.90
54960;DHT22;40860;51.710;8.736;2023-04-01T17:49:53;10.90;99.90
54960;DHT22;40860;51.710;8.736;2023-04-01T17:54:05;10.80;99.90
54960;DHT22;40860;51.710;8.736;2023-04-01T17:58:17;10.80;99.90
54960;DHT22;40860;51.710;8.736;2023-04-01T18:02:25;10.80;99.90
54960;DHT22;40860;51.710;8.736;2023-04-01T18:06:35;10.80;99.90
54960;DHT22;40860;51.710;8.736;2023-04-01T18:10:49;10.80;99.90
54960;DHT22;40860;51.710;8.736;2023-04-01T18:15:08;10.80;99.90
54960;DHT22;40860;51.710;8.736;2023-04-01T18:19:22;10.70;99.90
54960;DHT22;40860;51.710;8.736;2023-04-01T18:23:36;10.70;99.90
54960;DHT22;40860;51.710;8.736;2023-04-01T18:27:48;10.70;99.90
54960;DHT22;40860;51.710;8.736;2023-04-01T18:32:00;10.70;99.90
54960;DHT22;40860;51.710;8.736;2023-04-01T18:36:16;10.60;99.90
54960;DHT22;40860;51.710;8.736;2023-04-01T18:40:28;10.50;99.90
54960;DHT22;40860;51.710;8.736;2023-04-01T18:44:41;10.50;99.90
54960;DHT22;40860;51.710;8.736;2023-04-01T18:48:52;10.40;99.90
54960;DHT22;40860;51.710;8.736;2023-04-01T18:53:08;10.40;99.90
54960;DHT22;40860;51.710;8.736;2023-04-01T18:57:20;10.30;99.90
54960;DHT22;40860;51.710;8.736;2023-04-01T19:01:26;10.40;99.90
54960;DHT22;40860;51.710;8.736;2023-04-01T19:05:34;10.30;99.90
54960;DHT22;40860;51.710;8.736;2023-04-01T19:09:44;10.30;99.90
54960;DHT22;40860;51.710;8.736;2023-04-01T19:13:56;10.30;99.90
54960;DHT22;40860;51.710;8.736;2023-04-01T19:18:17;10.30;99.90
54960;DHT22;40860;51.710;8.736;2023-04-01T19:22:36;10.30;99.90
54960;DHT22;40860;51.710;8.736;2023-04-01T19:26:42;10.30;99.90
54960;DHT22;40860;51.710;8.736;2023-04-01T19:30:54;10.30;99.90
54960;DHT22;40860;51.710;8.736;2023-04-01T19:35:09;10.20;99.90
54960;DHT22;40860;51.710;8.736;2023-04-01T19:39:30;10.00;99.90
54960;DHT22;40860;51.710;8.736;2023-04-01T19:43:46;9.90;99.90
54960;DHT22;40860;51.710;8.736;2023-04-01T19:48:00;9.70;99.90
54960;DHT22;40860;51.710;8.736;2023-04-01T19:52:09;9.70;99.90
54960;DHT22;40860;51.710;8.736;2023-04-01T19:56:18;9.50;99.90
54960;DHT22;40860;51.710;8.736;2023-04-01T20:00:27;9.40;99.90
54960;DHT22;40860;51.710;8.736;2023-04-01T20:04:38;9.30;99.90
54960;DHT22;40860;51.710;8.736;2023-04-01T20:08:49;9.30;99.90
54960;DHT22;40860;51.710;8.736;2023-04-01T20:13:00;9.20;99.90
54960;DHT22;40860;51.710;8.736;2023-04-01T20:17:20;9.20;99.90
54960;DHT22;40860;51.710;8.736;2023-04-01T20:21:36;9.10;99.90
54960;DHT22;40860;51.710;8.736;2023-04-01T20:25:42;9.10;99.90
54960;DHT22;40860;51.710;8.736;2023-04-01T20:30:00;8.90;99.90
54960;DHT22;40860;51.710;8.736;2023-04-01T20:34:33;8.80;99.90
54960;DHT22;40860;51.710;8.736;2023-04-01T20:39:07;8.70;99.90
54960;DHT22;40860;51.710;8.736;2023-04-01T20:43:32;8.60;99.90
54960;DHT22;40860;51.710;8.736;2023-04-01T20:47:45;8.60;99.90
54960;DHT22;40860;51.710;8.736;2023-04-01T20:51:54;8.60;99.90
54960;DHT22;40860;51.710;8.736;2023-04-01T21:00:33;8.50;99.90
54960;DHT22;40860;51.710;8.736;2023-04-01T21:04:50;8.40;99.90
54960;DHT22;40860;51.710;8.736;2023-04-01T21:09:06;8.30;99.90
54960;DHT22;40860;51.710;8.736;2023-04-01T21:13:24;8.30;99.90
54960;DHT22;40860;51.710;8.736;2023-04-01T21:17:49;8.20;99.90
54960;DHT22;40860;51.710;8.736;2023-04-01T21:22:30;8.10;99.90
54960;DHT22;40860;51.710;8.736;2023-04-01T21:26:46;8.10;99.90
54960;DHT22;40860;51.710;8.736;2023-04-01T21:31:05;8.10;99.90
54960;DHT22;40860;51.710;8.736;2023-04-01T21:35:23;8.00;99.90
54960;DHT22;40860;51.710;8.736;2023-04-01T21:39:46;7.90;99.90
54960;DHT22;40860;51.710;8.736;2023-04-01T21:48:49;7.80;99.90
54960;DHT22;40860;51.710;8.736;2023-04-01T21:53:25;7.70;99.90
54960;DHT22;40860;51.710;8.736;2023-04-01T22:02:41;7.60;99.90
54960;DHT22;40860;51.710;8.736;2023-04-01T22:06:58;7.60;99.90
54960;DHT22;40860;51.710;8.736;2023-04-01T22:11:08;7.60;99.90
54960;DHT22;40860;51.710;8.736;2023-04-01T22:15:20;7.50;99.90
54960;DHT22;40860;51.710;8.736;2023-04-01T22:19:39;7.50;99.90
54960;DHT22;40860;51.710;8.736;2023-04-01T22:23:48;7.50;99.90
54960;DHT22;40860;51.710;8.736;2023-04-01T22:27:59;7.40;99.90
54960;DHT22;40860;51.710;8.736;2023-04-01T22:32:06;7.40;99.90
54960;DHT22;40860;51.710;8.736;2023-04-01T22:36:20;7.40;99.90
54960;DHT22;40860;51.710;8.736;2023-04-01T22:40:30;7.40;99.90
54960;DHT22;40860;51.710;8.736;2023-04-01T22:44:45;7.30;99.90
54960;DHT22;40860;51.710;8.736;2023-04-01T22:48:53;7.30;99.90
54960;DHT22;40860;51.710;8.736;2023-04-01T22:53:03;7.20;99.90
54960;DHT22;40860;51.710;8.736;2023-04-01T22:57:13;7.10;99.90
54960;DHT22;40860;51.710;8.736;2023-04-01T23:01:20;7.10;99.90
54960;DHT22;40860;51.710;8.736;2023-04-01T23:05:24;7.10;99.90
54960;DHT22;40860;51.710;8.736;2023-04-01T23:09:28;7.00;99.90
54960;DHT22;40860;51.710;8.736;2023-04-01T23:13:36;6.90;99.90
54960;DHT22;40860;51.710;8.736;2023-04-01T23:17:59;6.80;99.90
54960;DHT22;40860;51.710;8.736;2023-04-01T23:22:12;6.80;99.90
54960;DHT22;40860;51.710;8.736;2023-04-01T23:26:21;6.70;99.90
54960;DHT22;40860;51.710;8.736;2023-04-01T23:30:47;6.70;99.90
54960;DHT22;40860;51.710;8.736;2023-04-01T23:34:53;6.60;99.90
54960;DHT22;40860;51.710;8.736;2023-04-01T23:38:58;6.50;99.90
54960;DHT22;40860;51.710;8.736;2023-04-01T23:43:13;6.50;99.90
54960;DHT22;40860;51.710;8.736;2023-04-01T23:47:18;6.50;99.90
54960;DHT22;40860;51.710;8.736;2023-04-01T23:51:25;6.50;99.90
54960;DHT22;40860;51.710;8.736;2023-04-01T23:55:31;6.40;99.90
54960;DHT22;40860;51.710;8.736;2023-04-01T23:59:36;6.30;99.90
